createdAt,value
2018-12-26T00:02:28.824Z,3.95
2018-12-26T00:04:57.757Z,3.96
2018-12-26T00:07:26.626Z,4.26
2018-12-26T00:09:55.534Z,4.03
2018-12-26T00:12:24.401Z,3.94
2018-12-26T00:14:53.311Z,4.00
2018-12-26T00:17:22.196Z,3.95
2018-12-26T00:19:51.245Z,3.74
2018-12-26T00:22:19.979Z,3.85
2018-12-26T00:24:48.873Z,3.81
2018-12-26T00:27:17.747Z,3.78
2018-12-26T00:29:46.656Z,3.76
2018-12-26T00:32:15.542Z,3.79
2018-12-26T00:34:44.436Z,3.76
2018-12-26T00:37:13.390Z,3.67
2018-12-26T00:39:42.298Z,3.57
2018-12-26T00:42:11.207Z,3.62
2018-12-26T00:44:40.085Z,3.55
2018-12-26T00:47:09.014Z,3.54
2018-12-26T00:49:37.871Z,3.55
2018-12-26T00:52:06.778Z,3.53
2018-12-26T00:54:35.679Z,3.40
2018-12-26T00:57:04.553Z,3.39
2018-12-26T00:59:33.441Z,3.37
2018-12-26T01:02:02.341Z,3.44
2018-12-26T01:04:31.203Z,3.30
2018-12-26T01:07:00.108Z,3.27
2018-12-26T01:09:28.987Z,3.31
2018-12-26T01:11:57.873Z,3.27
2018-12-26T01:14:26.748Z,3.28
2018-12-26T01:16:55.655Z,3.32
2018-12-26T01:19:24.549Z,3.27
2018-12-26T01:21:53.449Z,3.17
2018-12-26T01:24:22.336Z,3.21
2018-12-26T01:26:51.233Z,3.24
2018-12-26T01:29:20.116Z,3.23
2018-12-26T01:31:49.008Z,3.20
2018-12-26T01:34:17.889Z,3.12
2018-12-26T01:36:46.769Z,3.16
2018-12-26T01:39:15.661Z,3.20
2018-12-26T01:41:44.550Z,3.26
2018-12-26T01:44:13.442Z,3.31
2018-12-26T01:46:42.346Z,3.18
2018-12-26T01:49:11.230Z,3.28
2018-12-26T01:51:40.131Z,3.20
2018-12-26T01:54:09.052Z,3.27
2018-12-26T01:56:37.951Z,3.24
2018-12-26T01:59:07.094Z,3.21
2018-12-26T02:01:35.781Z,3.22
2018-12-26T02:04:04.673Z,3.25
2018-12-26T02:06:33.593Z,3.22
2018-12-26T02:09:02.472Z,3.19
2018-12-26T02:11:31.373Z,3.18
2018-12-26T02:14:00.269Z,3.07
2018-12-26T02:16:29.141Z,3.13
2018-12-26T02:18:58.059Z,3.10
2018-12-26T02:21:26.945Z,3.14
2018-12-26T02:23:55.863Z,3.13
2018-12-26T02:26:24.751Z,3.09
2018-12-26T02:28:53.647Z,3.13
2018-12-26T02:31:22.521Z,3.16
2018-12-26T02:33:51.435Z,3.09
2018-12-26T02:36:20.288Z,3.11
2018-12-26T02:38:49.182Z,3.10
2018-12-26T02:41:18.051Z,3.08
2018-12-26T02:43:46.959Z,3.09
2018-12-26T02:46:15.837Z,3.18
2018-12-26T02:48:44.750Z,3.13
2018-12-26T02:51:13.632Z,3.12
2018-12-26T02:53:42.504Z,3.20
2018-12-26T02:56:11.407Z,3.19
2018-12-26T02:58:40.290Z,3.32
2018-12-26T03:01:09.262Z,3.33
2018-12-26T03:03:38.169Z,3.34
2018-12-26T03:06:07.108Z,3.88
2018-12-26T03:08:36.010Z,3.70
2018-12-26T03:11:04.942Z,3.69
2018-12-26T03:13:33.824Z,3.75
2018-12-26T03:16:02.709Z,3.69
2018-12-26T03:18:31.623Z,3.80
2018-12-26T03:21:00.509Z,3.77
2018-12-26T03:23:29.378Z,3.77
2018-12-26T03:25:58.294Z,3.77
2018-12-26T03:28:27.202Z,3.81
2018-12-26T03:30:56.086Z,3.79
2018-12-26T03:33:24.979Z,3.70
2018-12-26T03:35:53.887Z,3.74
2018-12-26T03:38:22.874Z,3.72
2018-12-26T03:40:51.780Z,3.90
2018-12-26T03:43:20.678Z,3.85
2018-12-26T03:45:49.541Z,3.88
2018-12-26T03:48:18.456Z,3.93
2018-12-26T03:50:47.350Z,3.84
2018-12-26T03:53:16.225Z,3.83
2018-12-26T03:55:45.135Z,3.90
2018-12-26T03:58:14.011Z,3.85
2018-12-26T04:00:42.903Z,3.86
2018-12-26T04:03:11.805Z,3.92
2018-12-26T04:05:40.681Z,3.94
2018-12-26T04:08:09.598Z,3.98
2018-12-26T04:10:38.460Z,3.93
2018-12-26T04:13:07.433Z,3.95
2018-12-26T04:15:36.438Z,3.97
2018-12-26T04:18:05.314Z,3.90
2018-12-26T04:20:34.215Z,3.96
2018-12-26T04:23:03.089Z,3.90
2018-12-26T04:25:31.989Z,3.85
2018-12-26T04:28:00.888Z,3.86
2018-12-26T04:30:29.792Z,3.88
2018-12-26T04:32:58.666Z,3.88
2018-12-26T04:35:27.633Z,3.81
2018-12-26T04:37:56.446Z,4.01
2018-12-26T04:40:25.501Z,3.89
2018-12-26T04:42:54.265Z,3.98
2018-12-26T04:45:23.151Z,3.99
2018-12-26T04:47:52.021Z,3.90
2018-12-26T04:50:20.948Z,3.96
2018-12-26T04:52:49.804Z,4.00
2018-12-26T04:55:18.699Z,4.01
2018-12-26T04:57:47.709Z,3.97
2018-12-26T05:00:16.598Z,3.96
2018-12-26T05:02:45.455Z,4.16
2018-12-26T05:05:14.364Z,4.08
2018-12-26T05:07:43.265Z,4.00
2018-12-26T05:10:12.155Z,4.07
2018-12-26T05:12:41.017Z,4.01
2018-12-26T05:15:09.919Z,3.99
2018-12-26T05:17:38.792Z,4.11
2018-12-26T05:20:07.822Z,4.08
2018-12-26T05:22:36.763Z,4.05
2018-12-26T05:25:05.739Z,4.05
2018-12-26T05:27:34.679Z,4.14
2018-12-26T05:30:03.553Z,4.06
2018-12-26T05:32:32.451Z,4.21
2018-12-26T05:35:01.367Z,4.14
2018-12-26T05:37:30.256Z,4.15
2018-12-26T05:39:59.146Z,4.18
2018-12-26T05:42:28.063Z,4.21
2018-12-26T05:44:56.970Z,4.16
2018-12-26T05:47:25.882Z,4.24
2018-12-26T05:49:54.783Z,4.27
2018-12-26T05:52:23.681Z,4.23
2018-12-26T05:54:52.569Z,4.35
2018-12-26T05:57:21.459Z,4.37
2018-12-26T05:59:50.374Z,4.43
2018-12-26T06:02:19.293Z,4.53
2018-12-26T06:04:48.378Z,4.53
2018-12-26T06:07:17.243Z,4.48
2018-12-26T06:09:46.147Z,4.50
2018-12-26T06:12:15.023Z,4.49
2018-12-26T06:14:43.955Z,4.55
2018-12-26T06:17:12.834Z,4.57
2018-12-26T06:19:41.709Z,4.49
2018-12-26T06:22:10.615Z,4.51
2018-12-26T06:24:39.520Z,4.58
2018-12-26T06:27:08.438Z,4.48
2018-12-26T06:29:37.356Z,4.54
2018-12-26T06:32:06.263Z,4.61
2018-12-26T06:34:35.147Z,4.58
2018-12-26T06:37:04.079Z,4.66
2018-12-26T06:39:32.961Z,4.63
2018-12-26T06:42:01.852Z,4.61
2018-12-26T06:44:32.652Z,4.61
2018-12-26T06:46:59.645Z,4.56
2018-12-26T06:49:28.547Z,4.61
2018-12-26T06:51:57.444Z,4.61
2018-12-26T06:54:26.327Z,4.61
2018-12-26T06:56:55.229Z,4.55
2018-12-26T06:59:24.139Z,4.52
2018-12-26T07:01:53.066Z,4.54
2018-12-26T07:04:21.933Z,4.54
2018-12-26T07:06:50.812Z,4.36
2018-12-26T07:09:19.718Z,4.31
2018-12-26T07:11:48.587Z,4.25
2018-12-26T07:14:17.482Z,4.31
2018-12-26T07:16:46.369Z,4.31
2018-12-26T07:19:15.264Z,4.32
2018-12-26T07:21:44.148Z,4.36
2018-12-26T07:24:13.043Z,4.34
2018-12-26T07:26:41.923Z,4.47
2018-12-26T07:29:10.830Z,4.34
2018-12-26T07:31:39.694Z,4.79
2018-12-26T07:34:08.735Z,4.54
2018-12-26T07:36:37.604Z,4.60
2018-12-26T07:39:07.815Z,4.43
2018-12-26T07:41:36.665Z,4.38
2018-12-26T07:44:05.586Z,4.47
2018-12-26T07:46:34.460Z,4.42
2018-12-26T07:49:03.395Z,4.42
2018-12-26T07:51:32.298Z,4.77
2018-12-26T07:54:01.172Z,4.46
2018-12-26T07:56:30.065Z,4.47
2018-12-26T07:58:58.982Z,4.36
2018-12-26T08:01:27.843Z,4.37
2018-12-26T08:03:56.762Z,4.32
2018-12-26T08:06:25.631Z,4.23
2018-12-26T08:08:54.541Z,4.31
2018-12-26T08:11:23.438Z,4.26
2018-12-26T08:13:52.363Z,4.22
2018-12-26T08:16:21.267Z,4.31
2018-12-26T08:18:50.143Z,4.76
2018-12-26T08:21:19.068Z,4.48
2018-12-26T08:23:47.938Z,4.89
2018-12-26T08:26:16.835Z,4.55
2018-12-26T08:28:45.757Z,4.54
2018-12-26T08:31:14.647Z,4.59
2018-12-26T08:33:43.539Z,4.62
2018-12-26T08:36:12.431Z,4.64
2018-12-26T08:38:41.324Z,4.55
2018-12-26T08:41:10.209Z,4.57
2018-12-26T08:43:39.078Z,4.57
2018-12-26T08:46:08.059Z,4.57
2018-12-26T08:48:36.969Z,4.62
2018-12-26T08:51:06.060Z,5.05
2018-12-26T08:53:34.926Z,4.77
2018-12-26T08:56:03.917Z,4.80
2018-12-26T08:58:35.281Z,4.78
2018-12-26T09:01:01.671Z,4.88
2018-12-26T09:03:30.564Z,5.19
2018-12-26T09:05:59.469Z,4.92
2018-12-26T09:08:28.344Z,4.92
2018-12-26T09:10:57.233Z,4.86
2018-12-26T09:13:26.113Z,4.84
2018-12-26T09:15:55.032Z,4.79
2018-12-26T09:18:23.895Z,4.84
2018-12-26T09:20:52.773Z,4.83
2018-12-26T09:23:21.683Z,4.85
2018-12-26T09:25:56.356Z,4.84
2018-12-26T09:28:25.235Z,4.85
2018-12-26T09:30:54.155Z,4.83
2018-12-26T09:33:23.056Z,5.18
2018-12-26T09:35:51.944Z,4.94
2018-12-26T09:38:20.950Z,5.27
2018-12-26T09:40:49.787Z,4.88
2018-12-26T09:43:18.684Z,4.76
2018-12-26T09:45:47.585Z,4.83
2018-12-26T09:48:16.489Z,5.29
2018-12-26T09:50:45.379Z,5.11
2018-12-26T09:53:14.279Z,5.04
2018-12-26T09:55:43.185Z,5.03
2018-12-26T09:58:12.073Z,5.12
2018-12-26T10:00:40.959Z,5.07
2018-12-26T10:03:09.844Z,5.17
2018-12-26T10:05:38.762Z,5.23
2018-12-26T10:08:07.717Z,5.19
2018-12-26T10:10:36.598Z,5.15
2018-12-26T10:13:05.642Z,5.08
2018-12-26T10:15:34.511Z,5.11
2018-12-26T10:18:03.467Z,5.16
2018-12-26T10:20:32.402Z,5.20
2018-12-26T10:23:01.293Z,5.61
2018-12-26T10:25:30.203Z,5.32
2018-12-26T10:27:59.073Z,5.37
2018-12-26T10:30:27.991Z,5.32
2018-12-26T10:32:56.868Z,5.30
2018-12-26T10:35:25.783Z,5.39
2018-12-26T10:37:54.693Z,5.29
2018-12-26T10:40:23.583Z,5.39
2018-12-26T10:42:52.487Z,5.25
2018-12-26T10:45:21.383Z,5.33
2018-12-26T10:47:50.295Z,5.28
2018-12-26T10:50:19.171Z,5.43
2018-12-26T10:52:48.074Z,5.21
2018-12-26T10:55:16.959Z,5.33
2018-12-26T10:57:45.874Z,5.41
2018-12-26T11:00:14.912Z,5.35
2018-12-26T11:02:43.817Z,5.40
2018-12-26T11:05:12.698Z,5.33
2018-12-26T11:07:41.563Z,5.43
2018-12-26T11:10:10.497Z,5.80
2018-12-26T11:12:39.362Z,5.64
2018-12-26T11:15:09.634Z,5.59
2018-12-26T11:17:38.496Z,5.91
2018-12-26T11:20:10.575Z,5.67
2018-12-26T11:22:39.466Z,5.66
2018-12-26T11:25:08.562Z,5.61
2018-12-26T11:27:37.486Z,5.69
2018-12-26T11:30:07.440Z,5.70
2018-12-26T11:32:36.341Z,5.52
2018-12-26T11:35:05.310Z,5.58
2018-12-26T11:37:34.181Z,5.64
2018-12-26T11:40:03.099Z,5.69
2018-12-26T11:42:32.014Z,5.67
2018-12-26T11:45:00.921Z,5.74
2018-12-26T11:47:29.863Z,5.78
2018-12-26T11:49:58.756Z,5.68
2018-12-26T11:52:27.647Z,5.84
2018-12-26T11:54:56.547Z,5.80
2018-12-26T11:57:25.445Z,5.89
2018-12-26T11:59:54.378Z,6.00
2018-12-26T12:02:23.289Z,5.92
2018-12-26T12:04:52.166Z,5.93
2018-12-26T12:07:21.040Z,5.90
2018-12-26T12:09:49.956Z,5.91
2018-12-26T12:12:19.258Z,5.99
2018-12-26T12:14:48.156Z,5.93
2018-12-26T12:17:17.029Z,5.87
2018-12-26T12:19:45.999Z,5.94
2018-12-26T12:22:14.818Z,6.04
2018-12-26T12:24:43.697Z,6.05
2018-12-26T12:27:12.620Z,5.88
2018-12-26T12:29:41.547Z,6.02
2018-12-26T12:32:10.550Z,6.13
2018-12-26T12:34:39.428Z,6.11
2018-12-26T12:37:08.432Z,6.04
2018-12-26T12:39:37.324Z,6.03
2018-12-26T12:42:06.294Z,6.07
2018-12-26T12:44:35.198Z,5.96
2018-12-26T12:47:04.197Z,6.03
2018-12-26T12:49:33.087Z,6.07
2018-12-26T12:52:02.007Z,5.96
2018-12-26T12:54:30.973Z,6.34
2018-12-26T12:56:59.780Z,6.13
2018-12-26T12:59:28.695Z,6.15
2018-12-26T13:01:57.581Z,6.14
2018-12-26T13:04:26.490Z,6.06
2018-12-26T13:06:55.447Z,6.13
2018-12-26T13:09:24.325Z,6.07
2018-12-26T13:11:53.239Z,6.10
2018-12-26T13:14:22.130Z,6.11
2018-12-26T13:16:51.021Z,5.98
2018-12-26T13:19:19.911Z,6.01
2018-12-26T13:21:48.819Z,5.96
2018-12-26T13:24:17.731Z,5.92
2018-12-26T13:26:46.655Z,6.03
2018-12-26T13:29:15.579Z,6.03
2018-12-26T13:31:44.478Z,5.89
2018-12-26T13:34:13.424Z,6.03
2018-12-26T13:36:42.320Z,5.92
2018-12-26T13:39:11.332Z,6.40
2018-12-26T13:41:40.232Z,6.04
2018-12-26T13:44:09.421Z,5.98
2018-12-26T13:46:38.317Z,6.06
2018-12-26T13:49:07.505Z,6.09
2018-12-26T13:51:36.335Z,6.02
2018-12-26T13:54:05.252Z,6.00
2018-12-26T13:56:34.193Z,6.10
2018-12-26T13:59:03.027Z,6.09
2018-12-26T14:01:31.912Z,6.07
2018-12-26T14:04:00.822Z,6.06
2018-12-26T14:06:29.701Z,6.06
2018-12-26T14:08:58.813Z,6.15
2018-12-26T14:11:27.695Z,6.06
2018-12-26T14:13:56.572Z,6.04
2018-12-26T14:16:25.476Z,6.17
2018-12-26T14:18:54.363Z,6.09
2018-12-26T14:21:23.265Z,6.52
2018-12-26T14:23:52.182Z,6.74
2018-12-26T14:26:21.081Z,6.89
2018-12-26T14:28:49.992Z,6.57
2018-12-26T14:31:18.898Z,6.50
2018-12-26T14:33:47.791Z,6.29
2018-12-26T14:36:16.690Z,6.30
2018-12-26T14:38:45.553Z,6.29
2018-12-26T14:41:14.460Z,6.24
2018-12-26T14:43:43.327Z,6.29
2018-12-26T14:46:12.238Z,6.26
2018-12-26T14:48:41.243Z,6.20
2018-12-26T14:51:10.084Z,6.18
2018-12-26T14:53:39.008Z,6.17
2018-12-26T14:56:07.906Z,6.14
2018-12-26T14:58:36.814Z,6.16
2018-12-26T15:01:05.739Z,6.13
2018-12-26T15:03:34.621Z,6.08
2018-12-26T15:06:03.577Z,6.02
2018-12-26T15:08:32.475Z,6.46
2018-12-26T15:11:01.354Z,6.16
2018-12-26T15:13:30.263Z,5.98
2018-12-26T15:15:59.239Z,5.97
2018-12-26T15:18:28.114Z,6.05
2018-12-26T15:20:57.005Z,5.97
2018-12-26T15:23:25.878Z,5.94
2018-12-26T15:25:54.785Z,5.95
2018-12-26T15:28:23.664Z,5.79
2018-12-26T15:30:52.612Z,5.85
2018-12-26T15:33:21.493Z,5.89
2018-12-26T15:35:50.407Z,5.89
2018-12-26T15:38:19.295Z,5.79
2018-12-26T15:40:48.223Z,5.85
2018-12-26T15:43:17.119Z,5.80
2018-12-26T15:45:46.001Z,5.79
2018-12-26T15:48:14.932Z,5.76
2018-12-26T15:50:43.831Z,5.77
2018-12-26T15:53:12.770Z,5.75
2018-12-26T15:55:41.669Z,5.81
2018-12-26T15:58:10.579Z,5.83
2018-12-26T16:00:39.474Z,5.83
2018-12-26T16:03:08.438Z,5.90
2018-12-26T16:05:37.336Z,5.84
2018-12-26T16:08:06.253Z,5.87
2018-12-26T16:10:35.167Z,5.83
2018-12-26T16:13:04.140Z,5.80
2018-12-26T16:15:33.038Z,5.83
2018-12-26T16:18:01.950Z,5.81
2018-12-26T16:20:30.900Z,5.79
2018-12-26T16:22:59.872Z,6.10
2018-12-26T16:25:28.650Z,6.30
2018-12-26T16:27:57.540Z,5.93
2018-12-26T16:30:26.437Z,5.81
2018-12-26T16:32:55.331Z,5.85
2018-12-26T16:35:24.309Z,5.82
2018-12-26T16:38:01.288Z,5.74
2018-12-26T16:40:22.024Z,5.66
2018-12-26T16:42:54.251Z,5.72
2018-12-26T16:45:23.134Z,5.77
2018-12-26T16:47:52.061Z,5.78
2018-12-26T16:50:26.985Z,6.23
2018-12-26T16:52:49.857Z,5.89
2018-12-26T16:55:18.722Z,5.78
2018-12-26T16:57:47.625Z,5.81
2018-12-26T17:00:16.492Z,5.74
2018-12-26T17:02:45.399Z,5.70
2018-12-26T17:05:14.313Z,5.65
2018-12-26T17:07:43.226Z,5.72
2018-12-26T17:10:15.851Z,5.73
2018-12-26T17:12:44.760Z,5.64
2018-12-26T17:15:13.637Z,5.68
2018-12-26T17:17:42.555Z,5.72
2018-12-26T17:20:11.430Z,5.77
2018-12-26T17:22:40.311Z,5.75
2018-12-26T17:25:09.216Z,5.68
2018-12-26T17:27:38.114Z,5.77
2018-12-26T17:30:07.583Z,5.84
2018-12-26T17:32:36.489Z,5.77
2018-12-26T17:35:05.551Z,5.73
2018-12-26T17:37:34.341Z,5.74
2018-12-26T17:40:03.793Z,5.72
2018-12-26T17:42:32.706Z,5.72
2018-12-26T17:45:01.611Z,5.72
2018-12-26T17:47:30.514Z,5.57
2018-12-26T17:50:35.615Z,5.71
2018-12-26T17:53:04.555Z,5.67
2018-12-26T17:56:00.196Z,5.67
2018-12-26T17:58:31.006Z,5.71
2018-12-26T18:01:12.993Z,5.69
2018-12-26T18:03:40.518Z,5.63
2018-12-26T18:06:09.294Z,6.09
2018-12-26T18:08:38.205Z,5.96
2018-12-26T18:11:07.077Z,5.93
2018-12-26T18:13:35.994Z,5.81
2018-12-26T18:16:04.944Z,5.75
2018-12-26T18:18:33.828Z,5.67
2018-12-26T18:21:02.728Z,5.61
2018-12-26T18:23:31.623Z,5.60
2018-12-26T18:26:00.547Z,5.45
2018-12-26T18:28:29.473Z,5.42
2018-12-26T18:30:58.346Z,5.45
2018-12-26T18:33:27.248Z,5.38
2018-12-26T18:35:56.159Z,5.28
2018-12-26T18:38:25.043Z,5.66
2018-12-26T18:40:53.935Z,5.31
2018-12-26T18:43:22.843Z,5.24
2018-12-26T18:45:51.736Z,5.60
2018-12-26T18:48:20.612Z,5.23
2018-12-26T18:50:49.511Z,5.23
2018-12-26T18:53:18.390Z,5.11
2018-12-26T18:55:47.296Z,5.07
2018-12-26T18:58:16.202Z,5.11
2018-12-26T19:00:45.094Z,5.11
2018-12-26T19:03:13.977Z,5.12
2018-12-26T19:05:42.883Z,5.06
2018-12-26T19:08:11.782Z,4.95
2018-12-26T19:10:40.642Z,4.98
2018-12-26T19:13:09.553Z,4.82
2018-12-26T19:15:38.438Z,4.84
2018-12-26T19:18:07.387Z,4.91
2018-12-26T19:20:36.274Z,4.93
2018-12-26T19:23:05.225Z,4.94
2018-12-26T19:25:34.116Z,5.28
2018-12-26T19:28:03.025Z,5.07
2018-12-26T19:30:31.912Z,5.01
2018-12-26T19:33:00.815Z,4.97
2018-12-26T19:35:29.686Z,4.99
2018-12-26T19:37:58.631Z,4.98
2018-12-26T19:40:27.513Z,4.91
2018-12-26T19:42:56.397Z,4.89
2018-12-26T19:45:25.302Z,4.89
2018-12-26T19:47:54.235Z,4.93
2018-12-26T19:50:23.138Z,4.89
2018-12-26T19:52:52.058Z,5.36
2018-12-26T19:55:20.986Z,5.14
2018-12-26T19:57:49.922Z,5.05
2018-12-26T20:00:18.834Z,5.08
2018-12-26T20:02:47.741Z,5.05
2018-12-26T20:05:16.641Z,4.92
2018-12-26T20:07:45.545Z,4.93
2018-12-26T20:10:14.477Z,4.86
2018-12-26T20:12:43.364Z,4.92
2018-12-26T20:15:12.249Z,5.35
2018-12-26T20:17:41.130Z,4.98
2018-12-26T20:20:10.053Z,4.95
2018-12-26T20:22:38.941Z,4.92
2018-12-26T20:25:07.945Z,4.78
2018-12-26T20:27:36.838Z,4.77
2018-12-26T20:30:06.907Z,4.74
2018-12-26T20:32:35.805Z,4.63
2018-12-26T20:35:05.048Z,4.60
2018-12-26T20:37:33.936Z,4.64
2018-12-26T20:40:02.858Z,4.57
2018-12-26T20:42:31.752Z,4.48
2018-12-26T20:45:00.663Z,4.41
2018-12-26T20:47:29.540Z,4.41
2018-12-26T20:49:58.435Z,4.31
2018-12-26T20:52:27.306Z,4.35
2018-12-26T20:54:56.214Z,4.33
2018-12-26T20:57:25.088Z,4.34
2018-12-26T20:59:54.040Z,4.41
2018-12-26T21:02:23.340Z,4.43
2018-12-26T21:04:52.235Z,4.48
2018-12-26T21:07:21.140Z,4.50
2018-12-26T21:09:50.048Z,4.48
2018-12-26T21:12:18.938Z,4.87
2018-12-26T21:14:47.844Z,4.53
2018-12-26T21:17:16.747Z,4.41
2018-12-26T21:19:45.645Z,4.42
2018-12-26T21:22:14.560Z,4.32
2018-12-26T21:24:43.434Z,4.37
2018-12-26T21:27:12.333Z,4.33
2018-12-26T21:29:41.260Z,4.27
2018-12-26T21:32:14.089Z,4.34
2018-12-26T21:34:39.091Z,4.35
2018-12-26T21:37:08.029Z,4.33
2018-12-26T21:39:36.953Z,4.23
2018-12-26T21:42:05.869Z,4.68
2018-12-26T21:44:34.768Z,4.40
2018-12-26T21:47:03.650Z,4.40
2018-12-26T21:49:32.588Z,4.37
2018-12-26T21:52:01.510Z,4.32
2018-12-26T21:54:30.395Z,4.76
2018-12-26T21:56:59.315Z,4.47
2018-12-26T21:59:28.196Z,4.31
2018-12-26T22:01:57.091Z,4.31
2018-12-26T22:04:25.982Z,4.28
2018-12-26T22:06:54.919Z,4.29
2018-12-26T22:09:23.793Z,4.34
2018-12-26T22:11:52.728Z,4.27
2018-12-26T22:14:21.620Z,4.27
2018-12-26T22:16:50.504Z,4.17
2018-12-26T22:19:19.414Z,4.21
2018-12-26T22:21:48.267Z,4.63
2018-12-26T22:24:17.167Z,4.29
2018-12-26T22:26:46.043Z,4.25
2018-12-26T22:29:14.964Z,4.14
2018-12-26T22:31:43.883Z,4.12
2018-12-26T22:34:12.784Z,4.07
2018-12-26T22:36:41.679Z,4.16
2018-12-26T22:39:10.553Z,4.14
2018-12-26T22:41:39.431Z,4.11
2018-12-26T22:44:08.326Z,4.11
2018-12-26T22:46:37.202Z,4.02
2018-12-26T22:49:06.116Z,4.07
2018-12-26T22:51:41.936Z,4.00
2018-12-26T22:54:03.934Z,4.04
2018-12-26T22:56:32.804Z,4.00
2018-12-26T22:59:01.734Z,4.02
2018-12-26T23:01:30.650Z,4.00
2018-12-26T23:03:59.518Z,3.91
2018-12-26T23:06:28.452Z,3.99
2018-12-26T23:08:57.336Z,4.38
2018-12-26T23:11:26.210Z,4.17
2018-12-26T23:13:55.101Z,4.12
2018-12-26T23:16:24.024Z,4.06
2018-12-26T23:18:52.898Z,4.03
2018-12-26T23:21:21.774Z,4.06
2018-12-26T23:23:50.671Z,3.96
2018-12-26T23:26:19.571Z,3.99
2018-12-26T23:28:48.534Z,4.03
2018-12-26T23:31:17.390Z,4.05
2018-12-26T23:33:46.269Z,4.08
2018-12-26T23:36:15.149Z,4.08
2018-12-26T23:38:44.114Z,4.08
2018-12-26T23:41:12.970Z,4.09
2018-12-26T23:43:41.856Z,4.08
2018-12-26T23:46:10.726Z,4.08
2018-12-26T23:48:39.643Z,4.06
2018-12-26T23:51:08.568Z,4.09
2018-12-26T23:53:37.475Z,4.11
2018-12-26T23:56:06.387Z,4.00
2018-12-26T23:58:35.271Z,3.99
